Data for 09/23/2007

Time Sea-Level Adjusted Pressure Absolute Pressure Temperature Relative Humidity Dew Point   
(mb) (inHg) (mb) (inHg) (C) (F) (%) (C) (F)
00:05 1009 29.8 839 24.78 10.1 50.3 92 8.9 48
00:10 1009 29.8 839 24.78 10 50 92 8.8 47.8
00:15 1009 29.8 839 24.78 10 50 91 8.6 47.4
00:20 1009 29.8 838 24.75 10 50 92 8.7 47.7
00:25 1009 29.8 838 24.75 9.8 49.7 92 8.6 47.4
00:30 1009 29.8 838 24.75 9.7 49.5 94 8.7 47.7
00:35 1009 29.8 838 24.75 9.5 49.1 95 8.7 47.6
00:40 1008 29.77 838 24.75 9.3 48.8 95 8.6 47.4
00:45 1008 29.77 838 24.75 9.5 49.1 93 8.5 47.3
00:50 1008 29.77 838 24.75 9.5 49.1 93 8.5 47.3
00:55 1008 29.77 837 24.72 9.6 49.2 93 8.5 47.3
01:00 1008 29.77 837 24.72 9.5 49.1 93 8.4 47.2
01:05 1008 29.77 837 24.72 9.6 49.2 93 8.5 47.2
01:10 1008 29.77 837 24.72 9.5 49.2 93 8.4 47.1
01:15 1008 29.77 837 24.72 9.5 49.1 93 8.4 47.2
01:20 1008 29.77 837 24.72 9.6 49.4 91 8.3 47
01:25 1008 29.77 837 24.72 9.7 49.4 92 8.5 47.2
01:30 1008 29.77 837 24.72 9.6 49.3 91 8.3 46.9
01:35 1008 29.77 837 24.72 9.6 49.3 92 8.4 47.1
01:40 1008 29.77 837 24.72 9.6 49.2 91 8.2 46.8
01:45 1007 29.74 837 24.72 9.8 49.7 90 8.3 46.9
01:50 1007 29.74 836 24.69 10 49.9 90 8.4 47.1
01:55 1007 29.74 836 24.69 9.9 49.9 91 8.5 47.3
02:00 1007 29.74 836 24.69 9.6 49.3 92 8.4 47.1
02:05 1007 29.74 836 24.69 9.6 49.3 91 8.3 46.9
02:10 1007 29.74 836 24.69 9.8 49.6 90 8.3 46.9
02:15 1007 29.74 836 24.69 10 50 89 8.3 46.9
02:20 1007 29.74 836 24.69 10.1 50.1 89 8.3 46.9
02:25 1007 29.74 836 24.69 10 50.1 89 8.3 47
02:30 1007 29.74 836 24.69 9.9 49.8 90 8.3 47
02:35 1007 29.74 836 24.69 9.8 49.7 90 8.2 46.8
02:40 1007 29.74 836 24.69 9.8 49.7 90 8.2 46.8
02:45 1007 29.74 836 24.69 9.8 49.6 90 8.3 46.9
02:50 1007 29.74 836 24.69 9.7 49.5 90 8.2 46.7
02:55 1007 29.74 836 24.69 9.7 49.4 91 8.3 46.9
03:00 1007 29.74 836 24.69 9.6 49.3 91 8.3 46.9
03:05 1007 29.74 836 24.69 9.6 49.3 92 8.3 47
03:10 1007 29.74 836 24.69 9.5 49.1 93 8.4 47
03:15 1006 29.71 836 24.69 9.4 48.9 94 8.5 47.3
03:20 1006 29.71 836 24.69 9.1 48.4 95 8.4 47.1
03:25 1006 29.71 835 24.66 9.1 48.4 96 8.4 47.1
03:30 1006 29.71 835 24.66 8.9 48 96 8.3 47
03:35 1006 29.71 836 24.69 9 48.2 96 8.3 47
03:40 1006 29.71 836 24.69 9.2 48.6 95 8.4 47.2
03:45 1007 29.74 836 24.69 9.2 48.6 95 8.5 47.2
03:50 1007 29.74 836 24.69 9.2 48.6 95 8.5 47.2
03:55 1007 29.74 836 24.69 9.2 48.5 95 8.4 47.2
04:00 1006 29.71 836 24.69 9.2 48.6 95 8.5 47.2
04:05 1007 29.74 836 24.69 9 48.1 97 8.4 47.2
04:10 1007 29.74 836 24.69 8.8 47.9 97 8.3 47
04:15 1007 29.74 836 24.69 8.7 47.7 97 8.3 47
04:20 1006 29.71 836 24.69 8.8 47.8 97 8.4 47.1
04:25 1006 29.71 836 24.69 8.8 47.8 97 8.4 47.1
04:30 1006 29.71 836 24.69 8.8 47.9 97 8.4 47.2
04:35 1006 29.71 836 24.69 8.8 47.9 97 8.4 47.1
04:40 1006 29.71 836 24.69 8.8 47.8 97 8.4 47.1
04:45 1006 29.71 835 24.66 8.8 47.8 97 8.4 47
04:50 1006 29.71 835 24.66 8.7 47.6 97 8.3 46.9
04:55 1006 29.71 836 24.69 8.8 47.8 97 8.4 47
05:00 1006 29.71 835 24.66 8.8 47.8 97 8.4 47.1
05:05 1006 29.71 836 24.69 8.7 47.7 97 8.3 47
05:10 1006 29.71 835 24.66 8.8 47.9 97 8.4 47.1
05:15 1006 29.71 836 24.69 8.9 48.1 96 8.3 47
05:20 1006 29.71 836 24.69 9 48.2 95 8.2 46.8
05:25 1006 29.71 836 24.69 9.1 48.3 95 8.3 46.9
05:30 1007 29.74 836 24.69 9 48.3 94 8.2 46.7
05:35 1007 29.74 836 24.69 8.8 47.9 96 8.2 46.7
05:40 1007 29.74 836 24.69 8.6 47.5 96 8.1 46.6
05:45 1007 29.74 836 24.69 8.7 47.6 96 8.1 46.6
05:50 1007 29.74 836 24.69 8.9 48 95 8.1 46.7
05:55 1006 29.71 836 24.69 9 48.1 94 8.1 46.6
06:00 1006 29.71 835 24.66 9 48.2 94 8.2 46.7
06:05 1006 29.71 836 24.69 9 48.1 94 8.1 46.6
06:10 1006 29.71 836 24.69 9.1 48.3 94 8.1 46.6
06:15 1007 29.74 836 24.69 8.9 48.1 96 8.3 46.9
06:20 1006 29.71 836 24.69 8.9 48 96 8.2 46.8
06:25 1007 29.74 836 24.69 9 48.1 95 8.2 46.8
06:30 1007 29.74 836 24.69 9 48.2 95 8.3 46.9
06:35 1007 29.74 836 24.69 8.9 48 96 8.2 46.8
06:40 1006 29.71 836 24.69 8.9 47.9 96 8.2 46.7
06:45 1006 29.71 836 24.69 8.9 48 96 8.2 46.8
06:50 1006 29.71 836 24.69 8.9 48.1 95 8.2 46.8
06:55 1007 29.74 836 24.69 8.9 47.9 96 8.2 46.7
07:00 1007 29.74 836 24.69 8.8 47.8 96 8.2 46.8
07:05 1007 29.74 836 24.69 8.8 47.9 96 8.2 46.7
07:10 1007 29.74 836 24.69 8.9 48 95 8.1 46.7
07:15 1007 29.74 836 24.69 8.8 47.9 95 8.1 46.6
07:20 1007 29.74 836 24.69 8.8 47.8 95 8.1 46.5
07:25 1007 29.74 836 24.69 8.9 48 95 8.1 46.6
07:30 1007 29.74 836 24.69 8.8 47.9 96 8.2 46.7
07:35 1007 29.74 836 24.69 8.7 47.6 96 8.1 46.5
07:40 1007 29.74 836 24.69 8.7 47.6 96 8 46.5
07:45 1007 29.74 836 24.69 8.6 47.4 97 8.1 46.6
07:50 1007 29.74 836 24.69 8.5 47.3 97 8 46.5
07:55 1007 29.74 836 24.69 8.5 47.3 97 8 46.5
08:00 1007 29.74 836 24.69 8.6 47.4 97 8.1 46.6
08:05 1007 29.74 836 24.69 8.6 47.6 96 8.1 46.6
08:10 1007 29.74 836 24.69 8.7 47.7 96 8.1 46.6
08:15 1007 29.74 836 24.69 9 48.2 95 8.2 46.7
08:20 1007 29.74 837 24.72 9.2 48.6 93 8.1 46.6
08:25 1007 29.74 837 24.72 9.3 48.7 93 8.3 46.9
08:30 1007 29.74 836 24.69 9.3 48.7 94 8.4 47.1
08:35 1007 29.74 836 24.69 9.4 49 93 8.4 47.1
08:40 1007 29.74 836 24.69 9.7 49.5 91 8.4 47.1
08:45 1007 29.74 837 24.72 9.7 49.4 92 8.5 47.2
08:50 1008 29.77 837 24.72 9.5 49.2 94 8.5 47.4
08:55 1008 29.77 837 24.72 9.3 48.8 95 8.5 47.3
09:00 1008 29.77 837 24.72 9.2 48.5 95 8.4 47.2
09:05 1008 29.77 837 24.72 9.4 49 94 8.5 47.3
09:10 1008 29.77 837 24.72 9.6 49.3 94 8.7 47.6
09:15 1008 29.77 837 24.72 9.6 49.3 94 8.8 47.8
09:20 1008 29.77 837 24.72 9.6 49.4 94 8.7 47.7
09:25 1008 29.77 837 24.72 9.5 49.1 96 8.9 48.1
09:30 1008 29.77 837 24.72 9.3 48.7 97 8.9 47.9
09:35 1008 29.77 837 24.72 9.5 49 96 8.9 48
09:40 1008 29.77 837 24.72 9.5 49.1 96 8.9 48
09:45 1008 29.77 837 24.72 9.5 49.1 96 8.9 48
09:50 1008 29.77 837 24.72 9.4 49 97 8.9 48.1
09:55 1008 29.77 837 24.72 9.4 48.9 96 8.8 47.9
10:00 1008 29.77 837 24.72 9.4 48.8 97 8.9 48
10:05 1008 29.77 837 24.72 9.4 48.9 97 8.9 48.1
10:10 1008 29.77 837 24.72 9.4 49 96 8.9 48
10:15 1008 29.77 837 24.72 9.5 49.2 96 8.9 48
10:20 1008 29.77 837 24.72 9.7 49.5 94 8.9 48
10:25 1008 29.77 837 24.72 9.9 49.9 95 9.2 48.5
10:30 1008 29.77 837 24.72 10.1 50.2 94 9.1 48.4
10:35 1008 29.77 837 24.72 10.3 50.5 91 8.9 48.1
10:40 1008 29.77 838 24.75 10.5 50.9 90 8.9 48
10:45 1008 29.77 838 24.75 10.8 51.4 91 9.3 48.8
10:50 1008 29.77 837 24.72 10.9 51.7 90 9.4 48.9
10:55 1008 29.77 837 24.72 10.7 51.2 93 9.5 49.1
11:00 1008 29.77 837 24.72 10.7 51.2 92 9.5 49
11:05 1008 29.77 837 24.72 10.7 51.3 93 9.6 49.3
11:10 1008 29.77 837 24.72 10.9 51.7 91 9.6 49.2
11:15 1008 29.77 837 24.72 11.2 52.2 89 9.5 49.1
11:20 1008 29.77 838 24.75 11.4 52.6 86 9.2 48.5
11:25 1008 29.77 838 24.75 11.8 53.2 85 9.4 48.9
11:30 1008 29.77 837 24.72 12.1 53.7 85 9.6 49.2
11:35 1008 29.77 837 24.72 12 53.5 84 9.4 48.8
11:40 1008 29.77 838 24.75 11.7 53.1 86 9.4 49
11:45 1008 29.77 838 24.75 11.8 53.3 85 9.4 48.9
11:50 1008 29.77 838 24.75 12.2 53.9 84 9.6 49.3
11:55 1008 29.77 838 24.75 12.4 54.3 84 9.9 49.7
12:00 1008 29.77 838 24.75 12.3 54.1 85 9.8 49.6
12:05 1008 29.77 838 24.75 12.1 53.8 85 9.6 49.3
12:10 1008 29.77 838 24.75 12 53.7 83 9.2 48.5
12:15 1008 29.77 838 24.75 12.2 54 84 9.6 49.3
12:20 1008 29.77 838 24.75 12.3 54.2 82 9.3 48.8
12:25 1008 29.77 838 24.75 12.2 54 82 9.3 48.8
12:30 1009 29.8 838 24.75 11.9 53.4 86 9.6 49.3
12:35 1008 29.77 838 24.75 11.8 53.3 82 9 48.1
12:40 1008 29.77 837 24.72 12.3 54.2 85 9.9 49.8
12:45 1008 29.77 837 24.72 13.4 56 81 10.1 50.2
12:50 1008 29.77 837 24.72 13.3 55.9 77 9.3 48.7
12:55 1008 29.77 837 24.72 13.1 55.5 78 9.3 48.7
13:00 1008 29.77 837 24.72 13.5 56.2 76 9.4 49
13:05 1008 29.77 837 24.72 13.1 55.5 79 9.5 49.2
13:10 1008 29.77 837 24.72 13.2 55.7 72 8.3 46.9
13:15 1008 29.77 837 24.72 14.4 58 67 8.5 47.3
13:20 1008 29.77 837 24.72 14.6 58.3 69 9 48.3
13:25 1008 29.77 837 24.72 14.1 57.3 67 8.1 46.7
13:30 1008 29.77 837 24.72 14.1 57.3 67 8.2 46.7
13:35 1008 29.77 837 24.72 14.3 57.8 72 9.4 48.8
13:40 1008 29.77 837 24.72 14.4 57.8 69 8.7 47.7
13:45 1008 29.77 837 24.72 14.3 57.7 71 9.2 48.6
13:50 1008 29.77 837 24.72 14 57.1 74 9.5 49.1
13:55 1008 29.77 838 24.75 13.3 55.9 76 9.2 48.5
14:00 1008 29.77 838 24.75 12.7 54.8 78 9 48.3
14:05 1008 29.77 837 24.72 12.4 54.3 80 9.1 48.3
14:10 1008 29.77 838 24.75 12.3 54.2 81 9.2 48.6
14:15 1008 29.77 838 24.75 12.2 54 82 9.3 48.7
14:20 1008 29.77 838 24.75 12.3 54.1 81 9.1 48.3
14:25 1009 29.8 838 24.75 12.3 54.1 79 8.8 47.8
14:30 1009 29.8 838 24.75 12.2 53.9 78 8.6 47.4
14:35 1008 29.77 838 24.75 11.9 53.4 80 8.6 47.5
14:40 1009 29.8 838 24.75 11.4 52.6 82 8.5 47.3
14:45 1009 29.8 838 24.75 11 51.8 82 8.2 46.7
14:50 1009 29.8 838 24.75 10.7 51.3 81 7.6 45.7
14:55 1009 29.8 838 24.75 10.5 50.9 80 7.3 45.2
15:00 1009 29.8 839 24.78 10.5 51 79 7 44.7
15:05 1009 29.8 839 24.78 10.4 50.7 79 7 44.6
15:10 1009 29.8 839 24.78 10.3 50.6 79 6.9 44.4
15:15 1010 29.83 839 24.78 10.3 50.5 79 6.7 44.1
15:20 1010 29.83 839 24.78 10.1 50.1 79 6.6 44
15:25 1010 29.83 839 24.78 9.8 49.7 79 6.5 43.6
15:30 1010 29.83 839 24.78 9.6 49.4 80 6.3 43.4
15:35 1010 29.83 839 24.78 9.4 49 79 6.1 42.9
15:40 1010 29.83 840 24.81 9.1 48.4 81 6.1 43
15:45 1011 29.85 840 24.81 8.8 47.8 81 5.6 42.2
15:50 1011 29.85 840 24.81 8.3 46.9 83 5.6 42.1
15:55 1011 29.85 840 24.81 7.9 46.1 85 5.5 41.8
16:00 1011 29.85 840 24.81 7.6 45.7 86 5.5 41.8
16:05 1011 29.85 841 24.83 7.4 45.4 87 5.4 41.8
16:10 1012 29.88 841 24.83 7.2 44.9 89 5.5 41.9
16:15 1012 29.88 841 24.83 6.7 44.1 91 5.4 41.7
16:20 1012 29.88 841 24.83 6.3 43.3 93 5.2 41.3
16:25 1012 29.88 841 24.83 5.9 42.7 93 4.9 40.7
16:30 1012 29.88 841 24.83 5.8 42.4 92 4.6 40.4
16:35 1012 29.88 841 24.83 5.7 42.2 94 4.7 40.5
16:40 1012 29.88 841 24.83 5.8 42.4 92 4.6 40.3
16:45 1012 29.88 841 24.83 5.9 42.6 91 4.5 40
16:50 1012 29.88 842 24.86 5.9 42.7 90 4.5 40.1
16:55 1013 29.91 842 24.86 5.9 42.7 89 4.3 39.8
17:00 1013 29.91 842 24.86 5.7 42.2 91 4.2 39.6
17:05 1013 29.91 842 24.86 5.5 41.9 91 4.2 39.6
17:10 1013 29.91 842 24.86 5.4 41.8 91 4.1 39.4
17:15 1013 29.91 842 24.86 5.2 41.4 92 4 39.2
17:20 1013 29.91 843 24.89 5.1 41.1 92 3.9 39
17:25 1013 29.91 843 24.89 5 40.9 91 3.6 38.5
17:30 1014 29.94 843 24.89 4.9 40.8 92 3.8 38.8
17:35 1014 29.94 843 24.89 4.9 40.8 92 3.8 38.8
17:40 1014 29.94 843 24.89 4.8 40.7 91 3.5 38.3
17:45 1014 29.94 843 24.89 4.8 40.6 90 3.2 37.8
17:50 1014 29.94 843 24.89 4.7 40.4 91 3.3 37.9
17:55 1014 29.94 843 24.89 4.7 40.5 90 3.3 37.9
18:00 1014 29.94 843 24.89 4.7 40.5 90 3.2 37.7
18:05 1014 29.94 843 24.89 4.7 40.4 89 3.1 37.5
18:10 1014 29.94 844 24.92 4.7 40.4 90 3.1 37.5
18:15 1014 29.94 844 24.92 4.7 40.5 90 3.2 37.8
18:20 1015 29.97 844 24.92 4.7 40.5 91 3.4 38.1
18:25 1015 29.97 844 24.92 4.6 40.4 91 3.4 38
18:30 1015 29.97 844 24.92 4.6 40.3 91 3.3 37.9
18:35 1015 29.97 844 24.92 4.5 40.1 91 3.1 37.7
18:40 1015 29.97 844 24.92 4.4 39.9 92 3.2 37.8
18:45 1015 29.97 844 24.92 4.4 39.9 91 3 37.4
18:50 1015 29.97 844 24.92 4.3 39.8 90 2.9 37.2
18:55 1015 29.97 844 24.92 4.2 39.6 91 2.9 37.2
19:00 1015 29.97 844 24.92 4.2 39.6 92 3 37.4
19:05 1015 29.97 844 24.92 4.2 39.6 91 2.8 37.1
19:10 1015 29.97 844 24.92 4.2 39.5 91 2.9 37.2
19:15 1015 29.97 844 24.92 4.2 39.6 92 3 37.3
19:20 1015 29.97 845 24.95 4.2 39.5 90 2.6 36.7
19:25 1015 29.97 845 24.95 4 39.3 89 2.4 36.3
19:30 1016 30 845 24.95 3.9 39 89 2.2 36
19:35 1016 30 845 24.95 3.8 38.8 90 2.2 36
19:40 1016 30 845 24.95 3.8 38.8 89 2.2 35.9
19:45 1016 30 845 24.95 3.7 38.7 89 2.1 35.7
19:50 1016 30 845 24.95 3.7 38.6 89 2 35.6
19:55 1016 30 845 24.95 3.6 38.5 88 1.8 35.2
20:00 1016 30 845 24.95 3.5 38.4 89 1.9 35.5
20:05 1016 30 845 24.95 3.5 38.3 89 1.8 35.3
20:10 1016 30 846 24.98 3.5 38.3 88 1.8 35.2
20:15 1016 30 846 24.98 3.4 38.2 89 1.8 35.3
20:20 1016 30 846 24.98 3.4 38.1 90 1.8 35.3
20:25 1016 30 846 24.98 3.3 38 89 1.7 35
20:30 1017 30.03 846 24.98 3.3 37.9 90 1.8 35.3
20:35 1017 30.03 846 24.98 3.3 37.9 90 1.8 35.2
20:40 1017 30.03 846 24.98 3.2 37.7 90 1.7 35.1
20:45 1017 30.03 846 24.98 3.1 37.6 89 1.4 34.6
20:50 1017 30.03 846 24.98 2.9 37.3 90 1.5 34.7
20:55 1017 30.03 846 24.98 2.9 37.1 91 1.5 34.7
21:00 1017 30.03 846 24.98 2.8 37.1 91 1.4 34.6
21:05 1017 30.03 846 24.98 2.6 36.8 92 1.5 34.7
21:10 1017 30.03 846 24.98 2.5 36.6 92 1.4 34.5
21:15 1017 30.03 846 24.98 2.5 36.4 92 1.3 34.3
21:20 1017 30.03 847 25.01 2.4 36.3 93 1.3 34.4
21:25 1017 30.03 847 25.01 2.4 36.3 93 1.3 34.4
21:30 1018 30.06 847 25.01 2.5 36.4 93 1.4 34.6
21:35 1018 30.06 847 25.01 2.5 36.5 92 1.3 34.4
21:40 1018 30.06 847 25.01 2.6 36.6 93 1.5 34.7
21:45 1018 30.06 847 25.01 2.7 36.9 92 1.5 34.7
21:50 1018 30.06 847 25.01 2.7 36.8 92 1.5 34.8
21:55 1018 30.06 847 25.01 2.6 36.7 93 1.6 34.8
22:00 1018 30.06 847 25.01 2.6 36.7 93 1.5 34.7
22:05 1018 30.06 847 25.01 2.5 36.6 94 1.6 34.9
22:10 1018 30.06 847 25.01 2.5 36.4 93 1.4 34.5
22:15 1018 30.06 847 25.01 2.5 36.5 93 1.5 34.7
22:20 1018 30.06 847 25.01 2.6 36.7 93 1.6 34.9
22:25 1018 30.06 847 25.01 2.7 36.8 92 1.5 34.7
22:30 1018 30.06 847 25.01 2.6 36.6 92 1.4 34.5
22:35 1018 30.06 847 25.01 2.5 36.6 94 1.6 34.9
22:40 1018 30.06 848 25.04 2.6 36.8 93 1.6 34.8
22:45 1018 30.06 848 25.04 2.5 36.4 92 1.3 34.3
22:50 1018 30.06 848 25.04 2.2 36 93 1.3 34.3
22:55 1019 30.09 848 25.04 2.1 35.7 95 1.3 34.3
23:00 1019 30.09 848 25.04 2 35.6 95 1.2 34.2
23:05 1019 30.09 848 25.04 1.9 35.5 95 1.2 34.2
23:10 1019 30.09 848 25.04 1.9 35.5 95 1.3 34.3
23:15 1019 30.09 848 25.04 2.1 35.8 95 1.3 34.3
23:20 1019 30.09 848 25.04 2 35.7 95 1.4 34.5
23:25 1019 30.09 848 25.04 2.1 35.7 96 1.4 34.6
23:30 1019 30.09 848 25.04 2.1 35.8 96 1.5 34.7
23:35 1019 30.09 848 25.04 2.1 35.8 94 1.3 34.3
23:40 1019 30.09 848 25.04 2 35.6 95 1.2 34.2
23:45 1019 30.09 848 25.04 2.1 35.7 95 1.3 34.4
23:50 1019 30.09 848 25.04 2.1 35.7 94 1.2 34.2
23:55 1019 30.09 848 25.04 2 35.6 95 1.2 34.2
24:00 1019 30.09 848 25.04 1.9 35.4 95 1.2 34.1